createdAt,value
2022-08-17T00:01:22.791Z,23.89
2022-08-17T00:03:52.945Z,23.90
2022-08-17T00:06:20.161Z,23.77
2022-08-17T00:08:46.465Z,23.82
2022-08-17T00:11:14.216Z,23.56
2022-08-17T00:13:42.449Z,23.74
2022-08-17T00:16:10.345Z,23.69
2022-08-17T00:19:00.959Z,23.69
2022-08-17T00:21:23.864Z,23.83
2022-08-17T00:23:50.436Z,23.73
2022-08-17T00:26:16.100Z,23.82
2022-08-17T00:29:00.440Z,23.92
2022-08-17T00:31:25.040Z,23.97
2022-08-17T00:33:49.356Z,23.68
2022-08-17T00:36:14.650Z,23.65
2022-08-17T00:38:40.068Z,23.98
2022-08-17T00:41:07.175Z,24.02
2022-08-17T00:43:34.338Z,24.22
2022-08-17T00:45:59.083Z,24.32
2022-08-17T00:48:29.089Z,24.29
2022-08-17T00:51:02.790Z,24.43
2022-08-17T00:53:29.628Z,24.49
2022-08-17T00:55:55.941Z,24.55
2022-08-17T00:58:35.810Z,24.70
2022-08-17T01:01:02.207Z,24.60
2022-08-17T01:03:27.547Z,24.60
2022-08-17T01:05:53.027Z,24.40
2022-08-17T01:08:19.892Z,24.48
2022-08-17T01:10:58.444Z,24.52
2022-08-17T01:13:28.758Z,24.32
2022-08-17T01:15:57.391Z,24.10
2022-08-17T01:18:21.370Z,24.02
2022-08-17T01:20:50.053Z,23.92
2022-08-17T01:23:20.521Z,24.16
2022-08-17T01:25:45.314Z,23.94
2022-08-17T01:28:13.253Z,24.24
2022-08-17T01:30:59.624Z,24.34
2022-08-17T01:33:23.646Z,24.40
2022-08-17T01:35:47.693Z,24.29
2022-08-17T01:38:11.822Z,24.20
2022-08-17T01:40:40.378Z,24.31
2022-08-17T01:43:09.703Z,24.29
2022-08-17T01:45:37.856Z,24.27
2022-08-17T01:48:02.484Z,23.97
2022-08-17T01:50:30.573Z,23.94
2022-08-17T01:52:59.806Z,24.18
2022-08-17T01:55:28.341Z,24.14
2022-08-17T01:57:53.830Z,24.31
2022-08-17T02:00:18.388Z,24.21
2022-08-17T02:02:45.898Z,24.20
2022-08-17T02:05:10.349Z,24.20
2022-08-17T02:07:55.975Z,24.16
2022-08-17T02:10:20.748Z,24.21
2022-08-17T02:12:44.812Z,24.19
2022-08-17T02:15:12.569Z,24.18
2022-08-17T02:17:36.757Z,23.72
2022-08-17T02:20:01.037Z,23.96
2022-08-17T02:22:26.236Z,23.82
2022-08-17T02:25:00.929Z,23.95
2022-08-17T02:27:28.155Z,23.78
2022-08-17T02:29:52.162Z,23.97
2022-08-17T02:32:20.742Z,23.85
2022-08-17T02:34:52.452Z,23.67
2022-08-17T02:37:17.867Z,23.34
2022-08-17T02:39:41.956Z,23.56
2022-08-17T02:42:07.854Z,23.76
2022-08-17T02:44:38.696Z,23.86
2022-08-17T02:47:05.249Z,23.97
2022-08-17T02:49:30.733Z,24.32
2022-08-17T02:51:54.865Z,24.60
2022-08-17T02:54:41.473Z,24.69
2022-08-17T02:57:03.365Z,24.64
2022-08-17T02:59:27.482Z,24.65
2022-08-17T03:01:51.792Z,24.74
2022-08-17T03:04:15.869Z,24.74
2022-08-17T03:06:41.328Z,24.64
2022-08-17T03:09:05.597Z,24.60
2022-08-17T03:11:29.916Z,24.49
2022-08-17T03:13:54.104Z,24.58
2022-08-17T03:16:18.119Z,24.42
2022-08-17T03:18:42.316Z,24.57
2022-08-17T03:21:08.567Z,24.44
2022-08-17T03:23:34.279Z,24.67
2022-08-17T03:25:59.561Z,24.67
2022-08-17T03:28:24.990Z,24.67
2022-08-17T03:30:49.057Z,24.74
2022-08-17T03:33:13.076Z,24.83
2022-08-17T03:35:40.449Z,25.01
2022-08-17T03:38:05.750Z,25.41
2022-08-17T03:40:41.805Z,25.46
2022-08-17T03:43:18.070Z,25.66
2022-08-17T03:46:01.214Z,25.79
2022-08-17T03:48:48.552Z,25.85
2022-08-17T03:51:35.032Z,26.07
2022-08-17T03:54:17.659Z,25.90
2022-08-17T03:56:44.600Z,25.92
2022-08-17T03:59:09.143Z,25.94
2022-08-17T04:01:48.146Z,26.01
2022-08-17T04:04:12.398Z,25.85
2022-08-17T04:06:36.427Z,25.81
2022-08-17T04:09:00.915Z,25.55
2022-08-17T04:11:24.974Z,25.94
2022-08-17T04:13:50.327Z,25.93
2022-08-17T04:16:14.328Z,26.06
2022-08-17T04:18:38.538Z,25.94
2022-08-17T04:21:02.694Z,26.25
2022-08-17T04:23:32.753Z,26.41
2022-08-17T04:25:57.591Z,26.22
2022-08-17T04:28:21.866Z,26.28
2022-08-17T04:30:48.765Z,26.07
2022-08-17T04:33:15.484Z,26.09
2022-08-17T04:35:42.858Z,26.42
2022-08-17T04:38:07.828Z,26.77
2022-08-17T04:40:49.471Z,26.76
2022-08-17T04:43:18.765Z,27.20
2022-08-17T04:45:51.330Z,27.25
2022-08-17T04:48:21.917Z,27.33
2022-08-17T04:50:48.746Z,27.40
2022-08-17T04:53:13.150Z,27.33
2022-08-17T04:55:37.506Z,27.51
2022-08-17T04:58:01.423Z,27.62
2022-08-17T05:00:26.129Z,27.10
2022-08-17T05:02:52.577Z,27.29
2022-08-17T05:05:21.403Z,27.40
2022-08-17T05:07:45.632Z,27.09
2022-08-17T05:10:10.490Z,27.51
2022-08-17T05:12:34.524Z,27.60
2022-08-17T05:14:58.505Z,27.91
2022-08-17T05:17:22.576Z,28.00
2022-08-17T05:19:51.742Z,28.09
2022-08-17T05:22:17.432Z,28.21
2022-08-17T05:24:43.522Z,28.34
2022-08-17T05:27:19.160Z,28.58
2022-08-17T05:29:44.001Z,28.66
2022-08-17T05:32:38.391Z,28.70
2022-08-17T05:35:00.443Z,28.69
2022-08-17T05:37:26.087Z,28.56
2022-08-17T05:39:50.092Z,28.43
2022-08-17T05:42:19.446Z,28.27
2022-08-17T05:44:43.552Z,28.18
2022-08-17T05:47:09.904Z,27.71
2022-08-17T05:49:34.146Z,27.51
2022-08-17T05:52:21.755Z,27.38
2022-08-17T05:54:59.904Z,27.63
2022-08-17T05:57:55.921Z,27.42
2022-08-17T06:00:26.267Z,27.10
2022-08-17T06:03:27.751Z,27.76
2022-08-17T06:06:07.270Z,27.64
2022-08-17T06:08:39.665Z,27.49
2022-08-17T06:11:15.948Z,27.35
2022-08-17T06:14:01.741Z,28.16
2022-08-17T06:16:34.534Z,27.95
2022-08-17T06:19:03.425Z,28.36
2022-08-17T06:21:34.175Z,28.51
2022-08-17T06:24:03.211Z,28.67
2022-08-17T06:26:39.635Z,29.24
2022-08-17T06:29:18.804Z,29.36
2022-08-17T06:31:43.386Z,29.57
2022-08-17T06:34:10.561Z,29.72
2022-08-17T06:36:51.919Z,29.90
2022-08-17T06:39:36.418Z,29.97
2022-08-17T06:43:02.887Z,29.80
2022-08-17T06:45:04.260Z,29.82
2022-08-17T06:47:36.481Z,29.65
2022-08-17T06:50:10.204Z,30.00
2022-08-17T06:52:45.932Z,29.98
2022-08-17T06:55:18.072Z,30.05
2022-08-17T06:57:49.703Z,29.93
2022-08-17T07:00:17.694Z,29.98
2022-08-17T07:02:53.175Z,30.41
2022-08-17T07:05:21.773Z,30.37
2022-08-17T07:08:05.536Z,30.47
2022-08-17T07:10:36.476Z,30.49
2022-08-17T07:13:25.629Z,30.23
2022-08-17T07:15:56.806Z,30.88
2022-08-17T07:18:22.590Z,30.73
2022-08-17T07:20:53.833Z,30.86
2022-08-17T07:23:26.889Z,30.73
2022-08-17T07:25:51.508Z,30.14
2022-08-17T07:28:24.569Z,30.92
2022-08-17T07:30:52.722Z,30.76
2022-08-17T07:33:20.338Z,30.63
2022-08-17T07:35:48.283Z,30.41
2022-08-17T07:38:24.957Z,30.78
2022-08-17T07:41:03.006Z,30.49
2022-08-17T07:43:31.148Z,29.95
2022-08-17T07:46:37.324Z,30.17
2022-08-17T07:49:21.788Z,30.28
2022-08-17T07:51:58.326Z,30.50
2022-08-17T07:54:39.571Z,30.68
2022-08-17T07:57:29.859Z,30.65
2022-08-17T08:00:23.864Z,30.79
2022-08-17T08:03:06.319Z,30.99
2022-08-17T08:05:49.667Z,31.34
2022-08-17T08:08:33.593Z,30.96
2022-08-17T08:11:07.254Z,31.22
2022-08-17T08:13:32.887Z,31.32
2022-08-17T08:16:20.071Z,32.18
2022-08-17T08:18:55.813Z,32.16
2022-08-17T08:21:30.137Z,32.26
2022-08-17T08:24:00.863Z,32.17
2022-08-17T08:26:33.578Z,32.31
2022-08-17T08:29:09.053Z,32.50
2022-08-17T08:31:51.491Z,32.41
2022-08-17T08:34:49.700Z,31.98
2022-08-17T08:37:30.158Z,31.80
2022-08-17T08:40:08.526Z,32.23
2022-08-17T08:42:40.625Z,32.25
2022-08-17T08:45:14.998Z,32.49
2022-08-17T08:48:05.463Z,32.38
2022-08-17T08:50:40.405Z,32.23
2022-08-17T08:53:33.946Z,32.79
2022-08-17T08:56:04.239Z,33.02
2022-08-17T08:58:41.558Z,32.88
2022-08-17T09:01:28.588Z,33.09
2022-08-17T09:04:24.564Z,33.25
2022-08-17T09:07:03.672Z,33.28
2022-08-17T09:09:42.338Z,33.43
2022-08-17T09:12:15.500Z,33.46
2022-08-17T09:14:47.376Z,33.68
2022-08-17T09:17:16.478Z,33.74
2022-08-17T09:19:48.072Z,33.83
2022-08-17T09:22:23.603Z,34.19
2022-08-17T09:24:54.749Z,33.85
2022-08-17T09:27:21.663Z,33.86
2022-08-17T09:29:50.778Z,34.28
2022-08-17T09:32:23.446Z,34.54
2022-08-17T09:34:54.972Z,34.12
2022-08-17T09:37:24.108Z,34.10
2022-08-17T09:39:56.671Z,33.63
2022-08-17T09:42:27.718Z,33.94
2022-08-17T09:45:02.574Z,33.68
2022-08-17T09:47:32.007Z,33.87
2022-08-17T09:50:07.488Z,34.07
2022-08-17T09:52:32.515Z,33.56
2022-08-17T09:54:58.818Z,33.71
2022-08-17T09:57:39.214Z,33.49
2022-08-17T10:00:16.609Z,33.83
2022-08-17T10:03:28.357Z,33.92
2022-08-17T10:05:59.537Z,33.89
2022-08-17T10:08:33.963Z,33.35
2022-08-17T10:11:12.820Z,34.12
2022-08-17T10:13:52.744Z,34.00
2022-08-17T10:16:27.156Z,34.05
2022-08-17T10:19:04.088Z,34.30
2022-08-17T10:21:49.821Z,34.36
2022-08-17T10:25:21.281Z,34.65
2022-08-17T10:27:40.639Z,34.93
2022-08-17T10:30:07.948Z,34.65
2022-08-17T10:32:36.622Z,34.91
2022-08-17T10:35:19.105Z,35.24
2022-08-17T10:38:05.433Z,35.40
2022-08-17T10:40:37.291Z,35.65
2022-08-17T10:43:14.666Z,35.38
2022-08-17T10:46:10.567Z,35.47
2022-08-17T10:48:39.800Z,34.99
2022-08-17T10:51:08.781Z,35.29
2022-08-17T10:53:56.070Z,35.36
2022-08-17T10:56:23.367Z,35.45
2022-08-17T10:58:50.561Z,35.63
2022-08-17T11:01:14.790Z,35.17
2022-08-17T11:03:54.815Z,34.95
2022-08-17T11:06:31.730Z,34.99
2022-08-17T11:09:31.035Z,35.29
2022-08-17T11:12:16.164Z,35.11
2022-08-17T11:15:00.606Z,35.03
2022-08-17T11:17:49.848Z,33.82
2022-08-17T11:20:40.972Z,33.97
2022-08-17T11:23:33.746Z,34.56
2022-08-17T11:26:04.081Z,34.53
2022-08-17T11:28:35.294Z,34.61
2022-08-17T11:31:04.617Z,33.67
2022-08-17T11:34:02.201Z,34.35
2022-08-17T11:36:51.939Z,33.99
2022-08-17T11:39:41.370Z,34.00
2022-08-17T11:42:11.991Z,33.92
2022-08-17T11:44:51.516Z,33.96
2022-08-17T11:47:39.137Z,34.04
2022-08-17T11:51:01.517Z,34.18
2022-08-17T11:56:55.300Z,30.75
2022-08-17T12:00:03.538Z,29.25
2022-08-17T12:02:36.098Z,27.63
2022-08-17T12:05:27.385Z,27.22
2022-08-17T12:07:58.390Z,27.14
2022-08-17T12:10:31.763Z,27.42
2022-08-17T12:12:56.533Z,26.45
2022-08-17T12:15:30.115Z,25.74
2022-08-17T12:17:56.729Z,25.86
2022-08-17T12:20:34.011Z,26.28
2022-08-17T12:23:08.427Z,27.20
2022-08-17T12:25:37.563Z,26.91
2022-08-17T12:28:06.913Z,27.59
2022-08-17T12:30:33.043Z,28.39
2022-08-17T12:32:57.223Z,28.95
2022-08-17T12:35:27.058Z,29.65
2022-08-17T12:37:51.919Z,30.22
2022-08-17T12:40:22.657Z,29.93
2022-08-17T12:42:56.864Z,30.77
2022-08-17T12:45:24.889Z,30.64
2022-08-17T12:47:51.404Z,30.82
2022-08-17T12:50:29.750Z,31.07
2022-08-17T12:52:59.659Z,31.57
2022-08-17T12:55:26.514Z,31.89
2022-08-17T12:57:59.720Z,32.39
2022-08-17T13:00:29.048Z,31.90
2022-08-17T13:02:59.241Z,30.80
2022-08-17T13:05:27.740Z,30.74
2022-08-17T13:07:53.269Z,30.71
2022-08-17T13:10:22.197Z,31.09
2022-08-17T13:12:46.391Z,30.96
2022-08-17T13:15:21.606Z,30.68
2022-08-17T13:17:56.535Z,31.64
2022-08-17T13:20:22.159Z,32.18
2022-08-17T13:22:54.563Z,31.67
2022-08-17T13:25:18.800Z,31.85
2022-08-17T13:27:44.253Z,31.90
2022-08-17T13:30:12.946Z,32.00
2022-08-17T13:32:43.549Z,31.90
2022-08-17T13:35:39.323Z,32.52
2022-08-17T13:38:06.589Z,32.32
2022-08-17T13:40:37.429Z,32.46
2022-08-17T13:43:03.409Z,32.83
2022-08-17T13:45:53.475Z,33.43
2022-08-17T13:48:27.546Z,33.41
2022-08-17T13:51:14.760Z,33.33
2022-08-17T13:53:53.372Z,33.65
2022-08-17T13:56:38.358Z,33.85
2022-08-17T13:59:07.288Z,33.35
2022-08-17T14:01:34.801Z,33.95
2022-08-17T14:04:00.599Z,33.57
2022-08-17T14:06:51.868Z,33.45
2022-08-17T14:09:11.719Z,33.37
2022-08-17T14:11:35.911Z,33.60
2022-08-17T14:14:01.052Z,33.23
2022-08-17T14:16:26.037Z,33.41
2022-08-17T14:18:56.850Z,33.05
2022-08-17T14:21:21.488Z,33.54
2022-08-17T14:23:49.955Z,33.15
2022-08-17T14:26:19.373Z,33.59
2022-08-17T14:28:54.433Z,33.09
2022-08-17T14:31:20.756Z,33.69
2022-08-17T14:33:44.892Z,33.29
2022-08-17T14:36:09.631Z,33.16
2022-08-17T14:38:33.695Z,33.14
2022-08-17T14:40:59.443Z,33.17
2022-08-17T14:43:23.349Z,33.04
2022-08-17T14:45:47.667Z,33.02
2022-08-17T14:48:12.016Z,33.09
2022-08-17T14:50:37.541Z,32.85
2022-08-17T14:53:04.673Z,32.32
2022-08-17T14:55:29.815Z,32.29
2022-08-17T14:57:55.227Z,32.71
2022-08-17T15:00:19.496Z,32.25
2022-08-17T15:02:48.277Z,32.24
2022-08-17T15:05:12.236Z,32.26
2022-08-17T15:07:36.197Z,32.22
2022-08-17T15:10:01.364Z,32.53
2022-08-17T15:12:32.278Z,32.34
2022-08-17T15:15:00.981Z,32.43
2022-08-17T15:17:25.047Z,32.24
2022-08-17T15:19:49.018Z,31.99
2022-08-17T15:22:22.109Z,32.25
2022-08-17T15:24:46.263Z,33.25
2022-08-17T15:27:11.511Z,33.49
2022-08-17T15:29:35.773Z,34.10
2022-08-17T15:32:02.092Z,32.85
2022-08-17T15:34:26.280Z,33.51
2022-08-17T15:36:50.519Z,32.94
2022-08-17T15:39:14.669Z,32.97
2022-08-17T15:41:43.843Z,32.41
2022-08-17T15:44:07.852Z,32.54
2022-08-17T15:46:32.012Z,32.89
2022-08-17T15:49:01.938Z,32.65
2022-08-17T15:51:28.707Z,32.91
2022-08-17T15:53:57.055Z,33.62
2022-08-17T15:56:22.337Z,33.93
2022-08-17T15:58:48.001Z,32.85
2022-08-17T16:01:14.914Z,33.07
2022-08-17T16:03:52.368Z,33.10
2022-08-17T16:06:30.636Z,32.99
2022-08-17T16:08:55.011Z,32.29
2022-08-17T16:11:19.911Z,32.34
2022-08-17T16:13:54.508Z,32.02
2022-08-17T16:16:18.951Z,31.85
2022-08-17T16:18:44.271Z,31.40
2022-08-17T16:21:31.295Z,31.19
2022-08-17T16:24:12.780Z,31.14
2022-08-17T16:26:39.545Z,30.67
2022-08-17T16:29:06.601Z,30.52
2022-08-17T16:31:32.586Z,30.58
2022-08-17T16:34:16.085Z,30.65
2022-08-17T16:36:41.754Z,30.81
2022-08-17T16:39:27.172Z,31.00
2022-08-17T16:41:52.405Z,30.79
2022-08-17T16:44:22.427Z,30.86
2022-08-17T16:46:48.123Z,30.34
2022-08-17T16:49:13.639Z,30.30
2022-08-17T16:52:03.420Z,30.77
2022-08-17T16:54:29.040Z,30.81
2022-08-17T16:56:53.320Z,30.70
2022-08-17T16:59:31.054Z,30.58
2022-08-17T17:02:05.111Z,30.76
2022-08-17T17:04:29.572Z,30.69
2022-08-17T17:07:03.984Z,30.53
2022-08-17T17:09:35.117Z,30.55
2022-08-17T17:12:03.388Z,30.16
2022-08-17T17:14:31.682Z,30.24
2022-08-17T17:17:03.836Z,30.30
2022-08-17T17:19:35.804Z,30.20
2022-08-17T17:22:09.212Z,29.61
2022-08-17T17:24:45.898Z,29.14
2022-08-17T17:27:21.472Z,29.01
2022-08-17T17:29:59.923Z,29.53
2022-08-17T17:32:38.026Z,29.50
2022-08-17T17:35:06.783Z,29.40
2022-08-17T17:37:35.412Z,29.38
2022-08-17T17:40:06.533Z,29.34
2022-08-17T17:42:33.720Z,29.34
2022-08-17T17:45:04.625Z,29.25
2022-08-17T17:47:30.924Z,29.02
2022-08-17T17:49:55.223Z,28.79
2022-08-17T17:52:27.485Z,28.34
2022-08-17T17:55:04.854Z,28.24
2022-08-17T17:57:47.257Z,28.17
2022-08-17T18:00:17.078Z,28.15
2022-08-17T18:02:57.793Z,27.85
2022-08-17T18:05:49.467Z,27.84
2022-08-17T18:08:32.200Z,26.98
2022-08-17T18:11:07.944Z,26.88
2022-08-17T18:13:50.203Z,26.95
2022-08-17T18:16:16.340Z,27.28
2022-08-17T18:18:44.175Z,27.22
2022-08-17T18:21:19.575Z,27.36
2022-08-17T18:24:06.662Z,27.17
2022-08-17T18:26:45.402Z,26.75
2022-08-17T18:29:25.807Z,26.53
2022-08-17T18:31:52.633Z,26.58
2022-08-17T18:34:46.022Z,26.53
2022-08-17T18:37:09.455Z,26.62
2022-08-17T18:39:34.270Z,26.32
2022-08-17T18:42:00.596Z,26.32
2022-08-17T18:44:29.689Z,26.16
2022-08-17T18:47:09.282Z,26.53
2022-08-17T18:49:34.269Z,26.44
2022-08-17T18:52:12.428Z,26.25
2022-08-17T18:54:37.549Z,26.70
2022-08-17T18:57:02.248Z,26.78
2022-08-17T18:59:32.693Z,27.04
2022-08-17T19:02:38.682Z,27.41
2022-08-17T19:05:13.484Z,27.35
2022-08-17T19:07:40.413Z,26.70
2022-08-17T19:10:15.417Z,26.63
2022-08-17T19:12:45.217Z,26.97
2022-08-17T19:15:13.728Z,26.90
2022-08-17T19:17:45.894Z,26.84
2022-08-17T19:20:17.183Z,26.61
2022-08-17T19:23:03.623Z,26.76
2022-08-17T19:25:32.710Z,26.70
2022-08-17T19:28:05.347Z,26.85
2022-08-17T19:30:48.067Z,27.01
2022-08-17T19:33:12.447Z,26.87
2022-08-17T19:35:55.241Z,26.63
2022-08-17T19:38:31.649Z,26.58
2022-08-17T19:41:08.460Z,26.67
2022-08-17T19:43:51.432Z,26.68
2022-08-17T19:46:26.258Z,26.58
2022-08-17T19:48:58.714Z,26.46
2022-08-17T19:51:36.941Z,26.61
2022-08-17T19:54:07.458Z,26.74
2022-08-17T19:56:42.404Z,26.39
2022-08-17T19:59:17.352Z,25.92
2022-08-17T20:01:50.314Z,25.70
2022-08-17T20:04:20.065Z,25.92
2022-08-17T20:06:46.930Z,26.10
2022-08-17T20:09:18.252Z,25.80
2022-08-17T20:11:48.865Z,25.83
2022-08-17T20:14:18.811Z,25.61
2022-08-17T20:16:45.134Z,25.82
2022-08-17T20:19:24.233Z,25.55
2022-08-17T20:21:57.744Z,25.48
2022-08-17T20:24:32.213Z,25.42
2022-08-17T20:26:59.978Z,25.40
2022-08-17T20:29:40.073Z,25.46
2022-08-17T20:32:27.174Z,25.61
2022-08-17T20:35:04.508Z,25.54
2022-08-17T20:37:32.432Z,25.43
2022-08-17T20:40:29.075Z,25.53
2022-08-17T20:42:53.498Z,25.28
2022-08-17T20:45:55.551Z,25.01
2022-08-17T20:48:37.869Z,25.03
2022-08-17T20:51:19.593Z,24.64
2022-08-17T20:54:07.761Z,25.01
2022-08-17T20:56:57.886Z,25.06
2022-08-17T20:59:57.290Z,24.99
2022-08-17T21:02:24.368Z,25.02
2022-08-17T21:05:05.452Z,24.90
2022-08-17T21:07:45.957Z,25.03
2022-08-17T21:10:14.024Z,25.00
2022-08-17T21:12:44.201Z,25.14
2022-08-17T21:15:18.324Z,24.96
2022-08-17T21:17:49.684Z,24.54
2022-08-17T21:20:32.279Z,24.66
2022-08-17T21:23:12.469Z,24.56
2022-08-17T21:25:57.383Z,24.25
2022-08-17T21:28:33.900Z,23.76
2022-08-17T21:31:01.184Z,24.22
2022-08-17T21:33:31.540Z,24.23
2022-08-17T21:36:26.389Z,24.36
2022-08-17T21:38:59.912Z,24.61
2022-08-17T21:41:27.629Z,24.23
2022-08-17T21:43:52.716Z,23.98
2022-08-17T21:46:26.343Z,24.04
2022-08-17T21:48:54.321Z,24.43
2022-08-17T21:51:24.840Z,24.80
2022-08-17T21:53:52.283Z,24.56
2022-08-17T21:56:24.064Z,24.25
2022-08-17T21:58:54.568Z,24.31
2022-08-17T22:01:24.886Z,24.41
2022-08-17T22:03:57.687Z,24.02
2022-08-17T22:06:27.902Z,24.27
2022-08-17T22:09:04.415Z,24.35
2022-08-17T22:11:28.643Z,24.09
2022-08-17T22:14:00.703Z,24.14
2022-08-17T22:16:30.374Z,24.06
2022-08-17T22:18:54.665Z,24.32
2022-08-17T22:21:18.962Z,24.37
2022-08-17T22:24:07.354Z,24.27
2022-08-17T22:27:00.674Z,24.31
2022-08-17T22:29:57.812Z,24.30
2022-08-17T22:32:43.043Z,24.21
2022-08-17T22:35:35.749Z,24.28
2022-08-17T22:38:31.083Z,24.38
2022-08-17T22:41:13.562Z,23.78
2022-08-17T22:43:40.351Z,23.98
2022-08-17T22:46:10.612Z,23.84
2022-08-17T22:48:35.093Z,23.73
2022-08-17T22:51:12.434Z,23.68
2022-08-17T22:53:55.360Z,23.89
2022-08-17T22:56:42.412Z,24.09
2022-08-17T22:59:23.565Z,24.00
2022-08-17T23:02:13.008Z,23.98
2022-08-17T23:04:39.713Z,24.13
2022-08-17T23:07:04.148Z,24.22
2022-08-17T23:09:30.987Z,24.27
2022-08-17T23:11:58.640Z,24.21
2022-08-17T23:14:22.840Z,24.25
2022-08-17T23:16:47.265Z,24.35
2022-08-17T23:19:11.465Z,24.33
2022-08-17T23:21:37.139Z,24.49
2022-08-17T23:24:01.463Z,24.60
2022-08-17T23:26:27.742Z,24.80
2022-08-17T23:28:53.227Z,24.79
2022-08-17T23:31:21.044Z,24.68
2022-08-17T23:33:51.189Z,24.89
2022-08-17T23:36:16.950Z,24.74
2022-08-17T23:38:43.600Z,24.77
2022-08-17T23:41:14.347Z,24.82
2022-08-17T23:43:39.529Z,24.74
2022-08-17T23:46:07.292Z,24.75
2022-08-17T23:48:35.794Z,24.93
2022-08-17T23:51:04.026Z,25.05
2022-08-17T23:53:31.292Z,24.93
2022-08-17T23:56:07.008Z,24.97
2022-08-17T23:58:34.106Z,24.84
